createdAt,value
2023-01-02T00:01:57.706Z,5.20
2023-01-02T00:04:25.864Z,4.53
2023-01-02T00:06:53.971Z,5.23
2023-01-02T00:09:25.391Z,4.70
2023-01-02T00:11:53.524Z,4.50
2023-01-02T00:14:21.730Z,5.10
2023-01-02T00:16:50.026Z,4.63
2023-01-02T00:19:21.928Z,4.57
2023-01-02T00:21:50.044Z,4.60
2023-01-02T00:24:18.178Z,4.40
2023-01-02T00:26:46.658Z,4.40
2023-01-02T00:29:14.836Z,4.47
2023-01-02T00:31:43.021Z,4.53
2023-01-02T00:34:13.920Z,4.70
2023-01-02T00:36:45.495Z,4.27
2023-01-02T00:39:14.174Z,4.20
2023-01-02T00:41:42.367Z,4.57
2023-01-02T00:44:10.501Z,4.80
2023-01-02T00:46:38.668Z,4.70
2023-01-02T00:49:06.987Z,4.60
2023-01-02T00:51:35.124Z,4.90
2023-01-02T00:54:04.820Z,4.97
2023-01-02T00:56:32.919Z,4.53
2023-01-02T00:59:03.226Z,4.97
2023-01-02T01:01:32.435Z,5.37
2023-01-02T01:04:01.420Z,4.57
2023-01-02T01:06:32.014Z,4.53
2023-01-02T01:09:00.844Z,4.90
2023-01-02T01:11:30.351Z,4.40
2023-01-02T01:13:58.701Z,5.03
2023-01-02T01:16:26.912Z,4.50
2023-01-02T01:18:57.891Z,3.93
2023-01-02T01:21:26.706Z,4.57
2023-01-02T01:23:56.369Z,4.50
2023-01-02T01:26:27.373Z,3.83
2023-01-02T01:28:57.521Z,4.23
2023-01-02T01:31:26.064Z,4.43
2023-01-02T01:33:54.550Z,4.83
2023-01-02T01:36:32.824Z,4.60
2023-01-02T01:39:02.919Z,5.43
2023-01-02T01:41:31.098Z,4.73
2023-01-02T01:44:03.138Z,4.47
2023-01-02T01:46:34.624Z,4.03
2023-01-02T01:49:07.171Z,4.30
2023-01-02T01:51:41.326Z,3.77
2023-01-02T01:54:12.448Z,4.03
2023-01-02T01:56:44.163Z,4.03
2023-01-02T01:59:16.408Z,3.77
2023-01-02T02:01:45.471Z,3.70
2023-01-02T02:04:19.191Z,4.63
2023-01-02T02:06:50.915Z,4.70
2023-01-02T02:09:24.803Z,4.30
2023-01-02T02:11:55.921Z,4.20
2023-01-02T02:14:27.471Z,4.20
2023-01-02T02:17:02.076Z,3.90
2023-01-02T02:20:06.020Z,3.87
2023-01-02T02:23:34.915Z,3.83
2023-01-02T02:26:47.685Z,3.90
2023-01-02T02:29:46.940Z,4.10
2023-01-02T02:32:27.483Z,3.57
2023-01-02T02:35:04.011Z,3.70
2023-01-02T02:37:39.099Z,4.07
2023-01-02T02:40:19.272Z,3.90
2023-01-02T02:43:01.783Z,3.60
2023-01-02T02:45:39.069Z,3.43
2023-01-02T02:48:16.773Z,3.00
2023-01-02T02:50:52.816Z,4.10
2023-01-02T02:53:25.513Z,3.73
2023-01-02T02:55:56.397Z,3.83
2023-01-02T02:58:26.299Z,3.30
2023-01-02T03:01:03.685Z,3.90
2023-01-02T03:03:33.226Z,3.23
2023-01-02T03:06:20.010Z,4.10
2023-01-02T03:08:56.549Z,3.60
2023-01-02T03:11:33.093Z,3.80
2023-01-02T03:14:05.919Z,4.03
2023-01-02T03:16:40.360Z,3.20
2023-01-02T03:19:12.716Z,3.63
2023-01-02T03:21:44.630Z,3.50
2023-01-02T03:24:17.568Z,3.90
2023-01-02T03:26:50.269Z,4.17
2023-01-02T03:29:28.917Z,3.97
2023-01-02T03:31:57.563Z,4.37
2023-01-02T03:34:30.450Z,4.10
2023-01-02T03:37:03.027Z,4.30
2023-01-02T03:39:34.326Z,3.93
2023-01-02T03:42:07.353Z,3.47
2023-01-02T03:44:43.343Z,4.00
2023-01-02T03:47:23.308Z,4.43
2023-01-02T03:49:55.896Z,4.60
2023-01-02T03:52:26.096Z,3.50
2023-01-02T03:54:56.178Z,3.33
2023-01-02T03:57:31.576Z,3.60
2023-01-02T04:00:04.267Z,3.97
2023-01-02T04:02:50.598Z,3.67
2023-01-02T04:05:26.459Z,3.57
2023-01-02T04:08:00.079Z,3.97
2023-01-02T04:10:30.189Z,4.57
2023-01-02T04:13:06.055Z,4.10
2023-01-02T04:15:37.636Z,3.60
2023-01-02T04:18:09.338Z,3.80
2023-01-02T04:20:43.025Z,4.17
2023-01-02T04:23:13.864Z,3.67
2023-01-02T04:25:48.618Z,3.67
2023-01-02T04:28:23.944Z,3.70
2023-01-02T04:30:56.550Z,3.43
2023-01-02T04:33:29.089Z,3.73
2023-01-02T04:35:58.567Z,4.13
2023-01-02T04:38:28.721Z,3.13
2023-01-02T04:40:56.818Z,4.07
2023-01-02T04:43:24.920Z,3.30
2023-01-02T04:45:53.034Z,3.83
2023-01-02T04:48:21.212Z,3.73
2023-01-02T04:50:49.833Z,3.63
2023-01-02T04:53:19.307Z,3.30
2023-01-02T04:55:49.784Z,3.83
2023-01-02T04:58:20.002Z,3.20
2023-01-02T05:00:48.115Z,4.10
2023-01-02T05:03:16.242Z,3.80
2023-01-02T05:05:44.384Z,4.10
2023-01-02T05:08:16.349Z,4.13
2023-01-02T05:10:45.886Z,3.77
2023-01-02T05:13:16.353Z,4.10
2023-01-02T05:15:44.416Z,3.50
2023-01-02T05:18:12.559Z,3.83
2023-01-02T05:20:40.660Z,4.23
2023-01-02T05:23:29.794Z,4.07
2023-01-02T05:26:01.587Z,3.60
2023-01-02T05:28:35.095Z,4.13
2023-01-02T05:31:09.049Z,4.40
2023-01-02T05:33:37.366Z,4.80
2023-01-02T05:36:09.140Z,4.20
2023-01-02T05:38:39.819Z,4.23
2023-01-02T05:41:09.296Z,4.90
2023-01-02T05:43:38.948Z,4.27
2023-01-02T05:46:11.737Z,4.87
2023-01-02T05:48:40.718Z,4.57
2023-01-02T05:51:10.129Z,4.30
2023-01-02T05:53:38.448Z,4.27
2023-01-02T05:56:09.873Z,3.80
2023-01-02T05:58:39.945Z,3.77
2023-01-02T06:01:09.384Z,4.37
2023-01-02T06:03:40.789Z,3.30
2023-01-02T06:06:12.525Z,4.50
2023-01-02T06:08:41.022Z,4.17
2023-01-02T06:11:13.037Z,3.90
2023-01-02T06:13:41.173Z,4.77
2023-01-02T06:16:11.264Z,3.70
2023-01-02T06:18:41.769Z,3.93
2023-01-02T06:21:11.878Z,4.40
2023-01-02T06:23:40.732Z,3.47
2023-01-02T06:26:10.527Z,3.57
2023-01-02T06:28:40.647Z,3.37
2023-01-02T06:31:10.794Z,4.67
2023-01-02T06:33:38.980Z,3.17
2023-01-02T06:36:11.611Z,3.37
2023-01-02T06:38:39.926Z,2.97
2023-01-02T06:41:09.457Z,3.17
2023-01-02T06:43:42.597Z,3.47
2023-01-02T06:46:13.986Z,3.10
2023-01-02T06:48:45.417Z,2.97
2023-01-02T06:51:15.826Z,3.73
2023-01-02T06:53:45.023Z,3.47
2023-01-02T06:56:14.984Z,3.20
2023-01-02T06:58:44.567Z,3.23
2023-01-02T07:01:14.414Z,4.17
2023-01-02T07:03:43.351Z,3.67
2023-01-02T07:06:13.183Z,3.60
2023-01-02T07:08:41.795Z,3.77
2023-01-02T07:11:12.376Z,3.87
2023-01-02T07:13:45.199Z,3.37
2023-01-02T07:16:17.907Z,3.30
2023-01-02T07:18:48.265Z,3.67
2023-01-02T07:21:18.043Z,3.40
2023-01-02T07:23:46.392Z,3.77
2023-01-02T07:26:15.128Z,3.97
2023-01-02T07:28:47.070Z,3.80
2023-01-02T07:31:19.882Z,4.50
2023-01-02T07:33:50.639Z,3.87
2023-01-02T07:36:22.140Z,3.53
2023-01-02T07:38:53.591Z,4.60
2023-01-02T07:41:23.672Z,4.53
2023-01-02T07:43:55.460Z,4.33
2023-01-02T07:46:26.179Z,3.60
2023-01-02T07:48:54.284Z,4.70
2023-01-02T07:51:27.314Z,4.03
2023-01-02T07:53:58.194Z,4.47
2023-01-02T07:56:28.982Z,3.80
2023-01-02T07:58:58.478Z,3.37
2023-01-02T08:01:28.921Z,3.90
2023-01-02T08:03:57.116Z,3.37
2023-01-02T08:06:25.310Z,3.70
2023-01-02T08:08:53.640Z,3.93
2023-01-02T08:11:23.567Z,3.93
2023-01-02T08:13:51.851Z,4.10
2023-01-02T08:16:22.759Z,3.90
2023-01-02T08:18:55.667Z,3.33
2023-01-02T08:21:24.409Z,3.43
2023-01-02T08:23:55.231Z,4.13
2023-01-02T08:26:24.054Z,3.93
2023-01-02T08:28:52.199Z,4.00
2023-01-02T08:31:23.076Z,3.33
2023-01-02T08:33:51.232Z,4.57
2023-01-02T08:36:21.706Z,3.40
2023-01-02T08:38:49.808Z,3.83
2023-01-02T08:41:32.462Z,3.53
2023-01-02T08:44:00.620Z,3.00
2023-01-02T08:46:30.398Z,2.90
2023-01-02T08:48:58.561Z,3.60
2023-01-02T08:51:26.992Z,3.50
2023-01-02T08:53:55.489Z,3.07
2023-01-02T08:56:25.396Z,3.20
2023-01-02T08:58:55.234Z,3.30
2023-01-02T09:01:25.077Z,3.50
2023-01-02T09:03:54.720Z,2.53
2023-01-02T09:06:24.227Z,3.60
2023-01-02T09:08:57.189Z,2.97
2023-01-02T09:11:27.611Z,2.47
2023-01-02T09:13:56.158Z,2.30
2023-01-02T09:16:25.058Z,2.33
2023-01-02T09:18:56.808Z,1.73
2023-01-02T09:21:25.024Z,1.30
2023-01-02T09:23:53.243Z,0.70
2023-01-02T09:26:21.694Z,0.50
2023-01-02T09:28:49.990Z,0.30
2023-01-02T09:31:21.939Z,0.70
2023-01-02T09:33:50.438Z,0.50
2023-01-02T09:36:20.965Z,0.50
2023-01-02T09:38:53.275Z,0.57
2023-01-02T09:41:30.088Z,0.87
2023-01-02T09:44:01.957Z,0.80
2023-01-02T09:46:36.818Z,1.10
2023-01-02T09:49:07.826Z,1.13
2023-01-02T09:51:39.910Z,1.00
2023-01-02T09:54:16.252Z,1.00
2023-01-02T09:56:49.102Z,0.80
2023-01-02T09:59:24.624Z,1.00
2023-01-02T10:02:02.901Z,0.70
2023-01-02T10:04:46.578Z,0.60
2023-01-02T10:07:23.356Z,1.20
2023-01-02T10:09:58.086Z,0.90
2023-01-02T10:12:33.804Z,1.20
2023-01-02T10:15:06.619Z,1.10
2023-01-02T10:17:41.872Z,1.30
2023-01-02T10:20:24.016Z,1.20
2023-01-02T10:22:58.290Z,1.00
2023-01-02T10:25:32.598Z,1.00
2023-01-02T10:28:13.965Z,0.93
2023-01-02T10:30:47.618Z,1.20
2023-01-02T10:33:23.245Z,0.97
2023-01-02T10:36:11.630Z,1.20
2023-01-02T10:38:41.282Z,1.50
2023-01-02T10:41:10.420Z,1.23
2023-01-02T10:43:40.611Z,1.40
2023-01-02T10:46:08.715Z,1.50
2023-01-02T10:48:40.232Z,1.20
2023-01-02T10:51:16.062Z,1.10
2023-01-02T10:54:01.104Z,1.20
2023-01-02T10:56:36.120Z,0.80
2023-01-02T10:59:05.164Z,1.17
2023-01-02T11:01:49.547Z,1.23
2023-01-02T11:04:23.108Z,1.03
2023-01-02T11:06:54.720Z,1.10
2023-01-02T11:09:26.218Z,1.50
2023-01-02T11:11:56.044Z,1.60
2023-01-02T11:14:28.923Z,1.30
2023-01-02T11:17:05.102Z,1.50
2023-01-02T11:19:39.869Z,1.60
2023-01-02T11:22:09.219Z,1.50
2023-01-02T11:25:00.006Z,1.23
2023-01-02T11:27:32.804Z,1.40
2023-01-02T11:30:01.643Z,1.13
2023-01-02T11:32:38.438Z,1.37
2023-01-02T11:35:27.745Z,2.03
2023-01-02T11:37:56.415Z,2.07
2023-01-02T11:40:29.196Z,1.70
2023-01-02T11:43:20.092Z,1.93
2023-01-02T11:45:48.552Z,1.90
2023-01-02T11:48:22.977Z,2.43
2023-01-02T11:50:51.946Z,2.47
2023-01-02T11:53:28.522Z,3.40
2023-01-02T11:56:02.169Z,3.27
2023-01-02T11:58:37.913Z,3.27
2023-01-02T12:01:18.892Z,3.77
2023-01-02T12:03:49.830Z,4.17
2023-01-02T12:06:20.775Z,3.90
2023-01-02T12:09:03.247Z,3.83
2023-01-02T12:11:49.319Z,4.03
2023-01-02T12:14:21.711Z,4.17
2023-01-02T12:16:58.074Z,3.83
2023-01-02T12:20:05.637Z,3.63
2023-01-02T12:22:57.554Z,3.93
2023-01-02T12:25:37.948Z,3.80
2023-01-02T12:28:21.868Z,4.00
2023-01-02T12:30:59.971Z,4.00
2023-01-02T12:33:40.165Z,3.50
2023-01-02T12:36:27.847Z,4.27
2023-01-02T12:39:21.170Z,3.83
2023-01-02T12:42:01.201Z,3.37
2023-01-02T12:44:49.038Z,3.60
2023-01-02T12:47:31.788Z,3.10
2023-01-02T12:50:26.096Z,3.37
2023-01-02T12:54:20.675Z,3.33
2023-01-02T12:57:00.248Z,3.20
2023-01-02T12:59:59.232Z,3.77
2023-01-02T13:02:46.909Z,3.10
2023-01-02T13:05:20.780Z,2.77
2023-01-02T13:08:04.595Z,2.73
2023-01-02T13:10:33.482Z,3.33
2023-01-02T13:13:02.690Z,2.83
2023-01-02T13:15:35.930Z,3.33
2023-01-02T13:18:10.185Z,3.57
2023-01-02T13:20:45.888Z,3.30
2023-01-02T13:23:28.242Z,2.70
2023-01-02T13:26:01.499Z,3.00
2023-01-02T13:28:31.736Z,2.80
2023-01-02T13:33:56.324Z,3.00
2023-01-02T13:36:28.903Z,3.30
2023-01-02T13:38:59.781Z,3.00
2023-01-02T13:41:29.674Z,2.93
2023-01-02T13:44:00.941Z,2.90
2023-01-02T13:49:22.252Z,3.37
2023-01-02T13:51:50.491Z,2.70
2023-01-02T13:54:21.320Z,3.40
2023-01-02T13:57:19.185Z,3.17
2023-01-02T13:59:59.335Z,2.67
2023-01-02T14:02:29.388Z,2.87
2023-01-02T14:04:57.642Z,2.53
2023-01-02T14:07:48.771Z,2.20
2023-01-02T14:10:35.048Z,2.17
2023-01-02T14:13:08.616Z,2.43
2023-01-02T14:16:03.993Z,2.70
2023-01-02T14:18:39.635Z,2.80
2023-01-02T14:21:13.499Z,2.50
2023-01-02T14:24:16.834Z,2.63
2023-01-02T14:26:36.132Z,2.87
2023-01-02T14:29:11.351Z,2.77
2023-01-02T14:31:40.064Z,3.13
2023-01-02T14:34:22.494Z,2.90
2023-01-02T14:36:55.264Z,3.47
2023-01-02T14:39:27.007Z,3.57
2023-01-02T14:42:48.031Z,3.40
2023-01-02T14:45:23.839Z,3.30
2023-01-02T14:47:55.430Z,3.10
2023-01-02T14:50:31.243Z,3.60
2023-01-02T14:53:07.329Z,3.43
2023-01-02T14:55:42.172Z,3.27
2023-01-02T14:58:20.322Z,3.57
2023-01-02T15:00:49.777Z,3.70
2023-01-02T15:03:25.841Z,3.13
2023-01-02T15:06:00.578Z,3.40
2023-01-02T15:08:42.722Z,4.00
2023-01-02T15:11:37.241Z,5.03
2023-01-02T15:14:08.371Z,4.23
2023-01-02T15:16:43.403Z,4.20
2023-01-02T15:19:18.783Z,4.07
2023-01-02T15:21:50.694Z,3.50
2023-01-02T15:24:22.278Z,2.87
2023-01-02T15:26:50.720Z,3.13
2023-01-02T15:29:25.006Z,3.40
2023-01-02T15:31:58.021Z,3.60
2023-01-02T15:34:31.268Z,3.50
2023-01-02T15:37:06.968Z,3.43
2023-01-02T15:39:38.343Z,4.10
2023-01-02T15:42:28.050Z,3.60
2023-01-02T15:45:10.396Z,3.37
2023-01-02T15:47:39.463Z,3.27
2023-01-02T15:50:13.694Z,3.80
2023-01-02T15:52:43.371Z,3.67
2023-01-02T15:55:16.509Z,4.03
2023-01-02T15:57:48.645Z,4.63
2023-01-02T16:00:37.530Z,5.00
2023-01-02T16:03:08.844Z,4.33
2023-01-02T16:05:49.622Z,5.10
2023-01-02T16:08:24.818Z,4.73
2023-01-02T16:11:01.346Z,4.63
2023-01-02T16:13:49.719Z,6.00
2023-01-02T16:16:19.274Z,5.70
2023-01-02T16:18:52.431Z,5.63
2023-01-02T16:21:21.736Z,6.70
2023-01-02T16:23:54.518Z,6.47
2023-01-02T16:26:28.614Z,7.03
2023-01-02T16:28:56.930Z,7.47
2023-01-02T16:31:26.787Z,7.03
2023-01-02T16:34:13.797Z,7.10
2023-01-02T16:36:42.200Z,7.00
2023-01-02T16:39:49.723Z,7.03
2023-01-02T16:42:37.481Z,7.60
2023-01-02T16:45:07.314Z,7.80
2023-01-02T16:47:39.838Z,7.17
2023-01-02T16:50:18.329Z,8.53
2023-01-02T16:52:49.493Z,9.27
2023-01-02T16:55:21.327Z,8.60
2023-01-02T16:57:50.426Z,8.23
2023-01-02T17:00:20.864Z,8.27
2023-01-02T17:02:51.572Z,8.17
2023-01-02T17:05:24.638Z,8.97
2023-01-02T17:07:52.767Z,10.50
2023-01-02T17:10:22.464Z,10.43
2023-01-02T17:12:50.575Z,10.90
2023-01-02T17:15:19.316Z,10.93
2023-01-02T17:17:47.474Z,11.70
2023-01-02T17:20:16.683Z,11.03
2023-01-02T17:22:44.771Z,11.20
2023-01-02T17:25:15.476Z,13.23
2023-01-02T17:27:45.862Z,13.60
2023-01-02T17:30:15.791Z,13.13
2023-01-02T17:32:47.701Z,18.38
2023-01-02T17:35:16.933Z,15.13
2023-01-02T17:37:48.171Z,14.70
2023-01-02T17:40:16.735Z,14.60
2023-01-02T17:42:46.455Z,14.10
2023-01-02T17:45:14.657Z,14.07
2023-01-02T17:48:03.565Z,14.27
2023-01-02T17:50:31.001Z,12.23
2023-01-02T17:52:59.907Z,11.17
2023-01-02T17:55:30.334Z,9.47
2023-01-02T17:58:00.905Z,8.93
2023-01-02T18:00:29.433Z,8.13
2023-01-02T18:02:57.591Z,8.50
2023-01-02T18:05:25.822Z,8.13
2023-01-02T18:07:56.226Z,7.03
2023-01-02T18:10:32.692Z,7.00
2023-01-02T18:13:03.465Z,6.47
2023-01-02T18:15:31.720Z,6.40
2023-01-02T18:18:07.453Z,6.30
2023-01-02T18:20:35.592Z,5.87
2023-01-02T18:23:11.990Z,4.63
2023-01-02T18:25:40.717Z,5.10
2023-01-02T18:28:22.368Z,4.93
2023-01-02T18:30:55.702Z,4.90
2023-01-02T18:33:26.164Z,4.80
2023-01-02T18:36:02.386Z,4.50
2023-01-02T18:38:33.224Z,5.97
2023-01-02T18:41:01.564Z,6.37
2023-01-02T18:43:35.740Z,6.57
2023-01-02T18:46:13.316Z,6.93
2023-01-02T18:48:41.452Z,7.00
2023-01-02T18:51:18.604Z,7.53
2023-01-02T18:53:49.567Z,7.37
2023-01-02T18:56:21.121Z,8.87
2023-01-02T18:59:03.671Z,8.67
2023-01-02T19:01:35.476Z,9.73
2023-01-02T19:04:24.316Z,9.90
2023-01-02T19:06:56.611Z,10.37
2023-01-02T19:09:30.517Z,11.13
2023-01-02T19:12:19.411Z,11.93
2023-01-02T19:14:50.041Z,11.67
2023-01-02T19:17:25.108Z,12.13
2023-01-02T19:19:55.248Z,12.10
2023-01-02T19:22:28.329Z,12.23
2023-01-02T19:25:02.029Z,13.33
2023-01-02T19:27:37.515Z,12.70
2023-01-02T19:30:23.396Z,14.93
2023-01-02T19:32:51.506Z,12.87
2023-01-02T19:35:56.667Z,14.83
2023-01-02T19:38:28.146Z,13.50
2023-01-02T19:40:56.540Z,14.33
2023-01-02T19:43:24.700Z,15.33
2023-01-02T19:45:54.501Z,15.23
2023-01-02T19:48:22.791Z,12.83
2023-01-02T19:50:50.962Z,14.37
2023-01-02T19:53:19.189Z,14.17
2023-01-02T19:55:47.809Z,13.60
2023-01-02T19:58:15.954Z,14.17
2023-01-02T20:00:44.768Z,13.93
2023-01-02T20:03:14.408Z,14.27
2023-01-02T20:05:42.587Z,13.20
2023-01-02T20:08:10.738Z,13.80
2023-01-02T20:10:38.885Z,12.70
2023-01-02T20:13:07.019Z,12.47
2023-01-02T20:15:35.243Z,12.17
2023-01-02T20:18:08.305Z,12.53
2023-01-02T20:20:38.499Z,12.90
2023-01-02T20:23:06.616Z,13.23
2023-01-02T20:25:34.689Z,12.80
2023-01-02T20:28:04.915Z,11.37
2023-01-02T20:30:33.053Z,11.47
2023-01-02T20:33:03.189Z,12.87
2023-01-02T20:35:31.262Z,14.10
2023-01-02T20:38:02.335Z,13.87
2023-01-02T20:40:32.477Z,12.23
2023-01-02T20:43:02.646Z,13.13
2023-01-02T20:45:31.009Z,12.80
2023-01-02T20:47:59.105Z,14.03
2023-01-02T20:50:27.207Z,14.40
2023-01-02T20:52:57.112Z,14.93
2023-01-02T20:55:26.825Z,13.23
2023-01-02T20:57:54.979Z,10.23
2023-01-02T21:00:23.238Z,9.23
2023-01-02T21:02:53.565Z,7.87
2023-01-02T21:05:24.106Z,6.83
2023-01-02T21:07:52.199Z,7.13
2023-01-02T21:10:20.487Z,6.40
2023-01-02T21:13:07.339Z,5.97
2023-01-02T21:15:49.506Z,6.43
2023-01-02T21:18:21.626Z,5.53
2023-01-02T21:20:52.103Z,4.80
2023-01-02T21:23:23.905Z,5.00
2023-01-02T21:25:52.719Z,4.80
2023-01-02T21:28:25.293Z,4.83
2023-01-02T21:30:55.871Z,4.37
2023-01-02T21:33:27.740Z,3.97
2023-01-02T21:35:58.113Z,4.90
2023-01-02T21:38:27.588Z,5.30
2023-01-02T21:41:16.623Z,4.80
2023-01-02T21:43:46.513Z,5.20
2023-01-02T21:46:15.125Z,5.03
2023-01-02T21:48:43.293Z,5.03
2023-01-02T21:51:11.453Z,5.80
2023-01-02T21:53:39.752Z,5.80
2023-01-02T21:56:08.549Z,5.30
2023-01-02T21:58:39.053Z,5.43
2023-01-02T22:01:10.819Z,5.20
2023-01-02T22:03:39.067Z,5.50
2023-01-02T22:06:07.545Z,6.23
2023-01-02T22:08:35.674Z,5.27
2023-01-02T22:11:21.069Z,5.67
2023-01-02T22:13:49.232Z,5.40
2023-01-02T22:16:18.825Z,5.33
2023-01-02T22:18:49.341Z,5.00
2023-01-02T22:21:17.700Z,4.27
2023-01-02T22:23:45.802Z,5.20
2023-01-02T22:26:14.267Z,5.13
2023-01-02T22:28:43.439Z,4.83
2023-01-02T22:31:12.399Z,4.90
2023-01-02T22:33:42.644Z,4.43
2023-01-02T22:36:11.557Z,5.00
2023-01-02T22:38:55.051Z,4.80
2023-01-02T22:41:30.847Z,5.40
2023-01-02T22:44:00.243Z,5.67
2023-01-02T22:46:31.291Z,6.70
2023-01-02T22:49:00.927Z,5.53
2023-01-02T22:51:57.783Z,6.23
2023-01-02T22:54:20.098Z,5.87
2023-01-02T22:56:51.023Z,6.47
2023-01-02T22:59:19.216Z,6.37
2023-01-02T23:01:49.809Z,6.07
2023-01-02T23:04:21.399Z,6.30
2023-01-02T23:07:22.296Z,7.00
2023-01-02T23:09:38.232Z,5.67
2023-01-02T23:12:06.783Z,5.57
2023-01-02T23:14:35.014Z,6.07
2023-01-02T23:17:20.432Z,5.93
2023-01-02T23:19:52.109Z,6.43
2023-01-02T23:22:20.294Z,6.20
2023-01-02T23:24:48.578Z,7.10
2023-01-02T23:27:16.801Z,6.20
2023-01-02T23:29:45.211Z,7.03
2023-01-02T23:32:14.151Z,7.30
2023-01-02T23:34:44.831Z,6.67
2023-01-02T23:37:14.398Z,6.53
2023-01-02T23:39:43.335Z,7.50
2023-01-02T23:42:11.578Z,6.23
2023-01-02T23:44:44.010Z,6.93
2023-01-02T23:47:17.149Z,6.40
2023-01-02T23:49:47.153Z,7.17
2023-01-02T23:52:19.536Z,7.00
2023-01-02T23:54:47.663Z,6.53
2023-01-02T23:57:15.869Z,6.47
2023-01-02T23:59:44.070Z,5.70
